Terminal Aerodrome Forecast
Issued by NWS Hastings, NE

Home | Current Version | Previous Version | Text Only | Print | Product List | Glossary On
Versions: 1 2 3 4 5 6 7 8 9 10 11 12 13 14 15 16 17 18 19 20 21 22 23 24 25 26 27 28 29 30 31 32 33 34 35 36 37 38 39 40 41 42 43 44 45
000
FTUS43 KGID 181609 AAB
TAFGRI
TAF AMD
KGRI 181609Z 1816/1912 VRB06KT P6SM SCT010 SCT050 BKN080
      TEMPO 1816/1818 BKN008
     FM182300 16010KT P6SM VCTS SCT035CB BKN050
     FM190800 34015KT P6SM VCSH SCT035 BKN050=

USA.gov is the U.S. government's official web portal to all federal, state and local government web resources and services.